• Join FlightAware (Why Join?)
  • Login
  • US Flag 
05:10AM EDT


 

Airport Tracker/Info


-or-


 

Live Flight TrackerFlight Track Log ✈ THY2469 ✈ 30-Apr-2013 ✈ LTAF / ADA - LTBA / IST

Flight Track Log - Related Links

Times and Time Zones

All times are in EDT time to prevent confusion due to time zone crossing. See the THY2469 flight status page for this flight to view local times or setup timezone preferences in your user account.

Time Position Orientation Groundspeed Altitude Reporting Facility
EDT Latitude Longitude Course Direction KTS MPH feet Rate Location/Type
01:21PM 37.5312 34.4658 311° West  Level Estimated
01:22PM 37.5919 34.3745 310° West  Level Estimated
01:23PM 37.6525 34.2831 310° West  Level Estimated
01:24PM 37.7130 34.1916 310° West  Level Estimated
01:25PM 37.7734 34.0999 310° West  Level Estimated
01:26PM 37.8338 34.0080 310° West  Level Estimated
01:27PM 37.8941 33.9160 310° West  Level Estimated
01:28PM 37.9543 33.8239 310° West  Level Estimated
01:29PM 38.0145 33.7316 310° West  Level Estimated
01:30PM 38.0746 33.6391 310° West  Level Estimated
01:31PM 38.1346 33.5465 310° West  Level Estimated
01:32PM 38.1945 33.4538 309° West  Level Estimated
01:33PM 38.2544 33.3609 309° West  Level Estimated
01:34PM 38.3142 33.2678 309° West  Level Estimated
01:35PM 38.3739 33.1746 309° West  Level Estimated
01:36PM 38.4336 33.0812 309° West  Level Estimated
01:37PM 38.4931 32.9877 309° West  Level Estimated
01:38PM 38.5526 32.8940 309° West  Level Estimated
01:39PM 38.6120 32.8002 309° West  Level Estimated
01:40PM 38.6714 32.7062 309° West  Level Estimated
01:41PM 38.7307 32.6121 309° West  Level Estimated
01:42PM 38.7899 32.5178 309° West  Level Estimated
01:43PM 38.8490 32.4233 309° West  Level Estimated
01:44PM 38.9080 32.3287 309° West  Level Estimated
01:45PM 38.9670 32.2339 309° West  Level Estimated
01:46PM 39.0259 32.1390 309° West  Level Estimated
01:47PM 39.0847 32.0439 309° West  Level Estimated
01:48PM 39.1435 31.9487 309° West  Level Estimated
01:49PM 39.2021 31.8533 308° West  Level Estimated
01:50PM 39.2607 31.7577 308° West  Level Estimated
01:51PM 39.3192 31.6620 308° West  Level Estimated
01:52PM 39.3776 31.5661 308° West  Level Estimated
01:53PM 39.4360 31.4701 308° West  Level Estimated
01:54PM 39.4942 31.3738 308° West  Level Estimated
01:55PM 39.5524 31.2775 308° West  Level Estimated
01:56PM 39.6105 31.1809 308° West  Level Estimated
01:57PM 39.6686 31.0842 308° West  Level Estimated
01:58PM 39.7265 30.9874 308° West  Level Estimated
01:59PM 39.7844 30.8904 308° West  Level Estimated
02:00PM 39.8422 30.7932 308° West  Level Estimated
02:01PM 39.8999 30.6959 308° West  Level Estimated
02:02PM 39.9575 30.5984 308° West  Level Estimated
02:03PM 40.0150 30.5007 308° West  Level Estimated
02:04PM 40.0725 30.4028 308° West  Level Estimated
02:05PM 40.1299 30.3048 307° West  Level Estimated
02:06PM 40.1872 30.2067 307° West  Level Estimated
02:07PM 40.2444 30.1083 307° West  Level Estimated
02:08PM 40.3015 30.0098 307° West  Level Estimated
02:09PM 40.3586 29.9112 307° West  Level Estimated
02:10PM 40.4155 29.8123 307° West  Level Estimated
02:11PM 40.4724 29.7134 307° West  Level Estimated
02:12PM 40.5292 29.6142 307° West  Level Estimated
02:13PM 40.5859 29.5149 307° West  Level Estimated
02:14PM 40.6425 29.4153 307° West  Level Estimated
02:15PM 40.6991 29.3157 307° West  Level Estimated
02:16PM 40.7555 29.2158 307° West  Level Estimated
02:17PM 40.8119 29.1158 307° West  Level Estimated
02:18PM 40.8681 29.0156 307° West  Level Estimated
02:19PM 40.9243 28.9153 307° West  Level Estimated
02:20PM 40.9769 28.8211 306° West  Level Estimated
02:21PM 40.9769 28.8211 21° North  Level Estimated
02:22PM 40.9769 28.8211 21° North  Level Estimated
02:23PM 40.9769 28.8211 21° North  Level Estimated
02:24PM 40.9769 28.8211 21° North  Level Estimated
02:25PM 40.9769 28.8211 21° North  Level Estimated
02:26PM 40.9769 28.8211 21° North  Level Estimated
02:27PM 40.9769 28.8211 21° North  Level Estimated
02:28PM 40.9769 28.8211 21° North  Level Estimated
02:29PM 40.9769 28.8211 21° North  Level Estimated
02:30PM 40.9769 28.8211 21° North  Level Estimated
02:31PM 40.9769 28.8211 21° North  Level Estimated
02:32PM 40.9769 28.8211 21° North  Level Estimated
02:33PM 40.9769 28.8211 21° North  Level Estimated
02:34PM 40.9769 28.8211 21° North  Level Estimated
02:35PM 40.9769 28.8211 21° North  Level Estimated
02:36PM 40.9769 28.8211 21° North  Level Estimated